createdAt,value
2023-07-21T00:01:16.049Z,101018.32
2023-07-21T00:03:46.461Z,101014.14
2023-07-21T00:06:18.903Z,101016.10
2023-07-21T00:08:47.405Z,101023.00
2023-07-21T00:11:15.680Z,101022.28
2023-07-21T00:13:44.061Z,101020.88
2023-07-21T00:16:12.648Z,101020.52
2023-07-21T00:18:43.072Z,101017.82
2023-07-21T00:21:11.449Z,101020.66
2023-07-21T00:23:39.822Z,101024.45
2023-07-21T00:26:08.764Z,101019.43
2023-07-21T00:28:39.041Z,101012.28
2023-07-21T00:31:07.335Z,101016.59
2023-07-21T00:33:36.099Z,101014.28
2023-07-21T00:36:05.934Z,101013.98
2023-07-21T00:38:34.193Z,101013.35
2023-07-21T00:41:02.572Z,101012.43
2023-07-21T00:43:31.157Z,101011.44
2023-07-21T00:45:59.939Z,101014.60
2023-07-21T00:48:28.335Z,101016.12
2023-07-21T00:50:56.806Z,101021.54
2023-07-21T00:53:26.201Z,101023.92
2023-07-21T00:55:54.591Z,101026.38
2023-07-21T00:58:24.317Z,101029.88
2023-07-21T01:00:52.679Z,101032.45
2023-07-21T01:03:21.960Z,101032.00
2023-07-21T01:05:54.209Z,101035.79
2023-07-21T01:08:22.825Z,101033.27
2023-07-21T01:10:52.739Z,101039.19
2023-07-21T01:13:22.548Z,101040.74
2023-07-21T01:15:52.569Z,101046.29
2023-07-21T01:18:22.321Z,101048.46
2023-07-21T01:20:51.991Z,101050.70
2023-07-21T01:23:55.489Z,101054.41
2023-07-21T01:26:24.858Z,101056.08
2023-07-21T01:28:53.474Z,101057.64
2023-07-21T01:31:22.894Z,101060.27
2023-07-21T01:33:53.448Z,101064.33
2023-07-21T01:36:22.837Z,101067.51
2023-07-21T01:38:51.947Z,101068.86
2023-07-21T01:41:20.181Z,101068.38
2023-07-21T01:43:49.798Z,101069.16
2023-07-21T01:46:18.671Z,101073.48
2023-07-21T01:48:49.002Z,101078.58
2023-07-21T01:51:22.129Z,101090.21
2023-07-21T01:54:02.049Z,101090.83
2023-07-21T01:56:38.817Z,101087.79
2023-07-21T01:59:12.214Z,101086.59
2023-07-21T02:01:42.058Z,101088.89
2023-07-21T02:04:11.534Z,101091.04
2023-07-21T02:06:39.912Z,101092.30
2023-07-21T02:09:08.186Z,101092.20
2023-07-21T02:11:36.571Z,101095.81
2023-07-21T02:14:12.110Z,101100.63
2023-07-21T02:16:42.566Z,101107.73
2023-07-21T02:19:10.921Z,101110.89
2023-07-21T02:21:39.401Z,101114.87
2023-07-21T02:24:08.145Z,101116.17
2023-07-21T02:26:36.470Z,101115.96
2023-07-21T02:29:04.736Z,101119.48
2023-07-21T02:31:33.464Z,101122.31
2023-07-21T02:34:01.842Z,101124.70
2023-07-21T02:36:30.496Z,101128.70
2023-07-21T02:38:59.080Z,101119.91
2023-07-21T02:41:27.655Z,101128.55
2023-07-21T02:43:55.950Z,101124.61
2023-07-21T02:46:24.944Z,101117.85
2023-07-21T02:48:54.227Z,101117.92
2023-07-21T02:51:22.509Z,101123.14
2023-07-21T02:53:51.190Z,101121.13
2023-07-21T02:56:19.566Z,101124.81
2023-07-21T02:58:57.065Z,101134.80
2023-07-21T03:01:25.572Z,101144.95
2023-07-21T03:03:55.802Z,101148.83
2023-07-21T03:06:24.897Z,101150.42
2023-07-21T03:08:56.815Z,101152.04
2023-07-21T03:11:27.661Z,101155.40
2023-07-21T03:14:08.427Z,101159.69
2023-07-21T03:16:37.125Z,101164.96
2023-07-21T03:19:05.897Z,101167.61
2023-07-21T03:21:34.373Z,101167.59
2023-07-21T03:24:03.268Z,101166.94
2023-07-21T03:26:31.650Z,101170.71
2023-07-21T03:28:59.939Z,101175.54
2023-07-21T03:31:29.864Z,101173.73
2023-07-21T03:34:04.461Z,101171.89
2023-07-21T03:36:34.070Z,101172.04
2023-07-21T03:39:03.981Z,101173.25
2023-07-21T03:41:32.267Z,101180.66
2023-07-21T03:44:00.638Z,101180.55
2023-07-21T03:46:29.426Z,101182.30
2023-07-21T03:49:01.211Z,101185.48
2023-07-21T03:51:29.971Z,101192.29
2023-07-21T03:53:59.735Z,101195.66
2023-07-21T03:56:29.139Z,101193.64
2023-07-21T03:59:00.922Z,101189.69
2023-07-21T04:01:30.272Z,101193.98
2023-07-21T04:03:58.725Z,101199.22
2023-07-21T04:06:27.905Z,101204.95
2023-07-21T04:08:56.613Z,101209.25
2023-07-21T04:11:26.935Z,101215.66
2023-07-21T04:13:55.414Z,101214.64
2023-07-21T04:16:24.029Z,101215.25
2023-07-21T04:18:52.790Z,101215.75
2023-07-21T04:21:21.160Z,101214.91
2023-07-21T04:23:50.463Z,101216.12
2023-07-21T04:26:19.866Z,101219.26
2023-07-21T04:28:48.141Z,101221.56
2023-07-21T04:31:22.955Z,101229.95
2023-07-21T04:34:03.434Z,101233.96
2023-07-21T04:36:31.914Z,101241.91
2023-07-21T04:39:04.813Z,101245.13
2023-07-21T04:41:33.997Z,101247.64
2023-07-21T04:44:03.823Z,101251.59
2023-07-21T04:46:32.533Z,101254.93
2023-07-21T04:49:01.998Z,101256.48
2023-07-21T04:51:41.557Z,101251.61
2023-07-21T04:54:10.139Z,101253.75
2023-07-21T04:56:39.536Z,101258.88
2023-07-21T04:59:09.992Z,101261.45
2023-07-21T05:01:38.441Z,101263.24
2023-07-21T05:04:06.979Z,101267.88
2023-07-21T05:06:35.813Z,101272.07
2023-07-21T05:09:04.515Z,101276.98
2023-07-21T05:11:32.971Z,101278.75
2023-07-21T05:14:03.506Z,101281.67
2023-07-21T05:17:01.845Z,101280.89
2023-07-21T05:19:48.295Z,101284.33
2023-07-21T05:22:41.531Z,101287.29
2023-07-21T05:25:36.142Z,101289.44
2023-07-21T05:28:05.034Z,101289.57
2023-07-21T05:30:35.669Z,101290.36
2023-07-21T05:33:04.351Z,101290.73
2023-07-21T05:35:32.634Z,101290.31
2023-07-21T05:38:06.843Z,101290.63
2023-07-21T05:40:35.320Z,101296.06
2023-07-21T05:43:06.665Z,101294.14
2023-07-21T05:45:39.266Z,101292.68
2023-07-21T05:48:11.191Z,101299.48
2023-07-21T05:50:46.512Z,101298.86
2023-07-21T05:53:15.974Z,101298.02
2023-07-21T05:55:44.876Z,101301.58
2023-07-21T05:58:22.336Z,101306.33
2023-07-21T06:00:51.509Z,101306.31
2023-07-21T06:03:19.871Z,101310.83
2023-07-21T06:05:50.132Z,101315.69
2023-07-21T06:08:41.758Z,101322.64
2023-07-21T06:11:39.428Z,101317.83
2023-07-21T06:14:21.524Z,101320.90
2023-07-21T06:16:57.947Z,101317.57
2023-07-21T06:19:26.584Z,101316.88
2023-07-21T06:21:54.950Z,101323.20
2023-07-21T06:24:23.468Z,101322.20
2023-07-21T06:26:52.536Z,101316.05
2023-07-21T06:29:20.906Z,101315.39
2023-07-21T06:31:50.821Z,101313.29
2023-07-21T06:34:39.373Z,101312.49
2023-07-21T06:37:26.182Z,101306.79
2023-07-21T06:40:12.236Z,101307.02
2023-07-21T06:43:10.352Z,101309.27
2023-07-21T06:45:59.959Z,101311.81
2023-07-21T06:48:48.990Z,101313.95
2023-07-21T06:51:28.949Z,101315.84
2023-07-21T06:53:57.829Z,101321.73
2023-07-21T06:56:26.014Z,101329.78
2023-07-21T06:58:54.178Z,101326.08
2023-07-21T07:01:22.975Z,101325.16
2023-07-21T07:03:52.903Z,101326.89
2023-07-21T07:06:21.483Z,101331.38
2023-07-21T07:08:49.741Z,101331.77
2023-07-21T07:11:18.018Z,101336.04
2023-07-21T07:13:46.197Z,101335.49
2023-07-21T07:16:14.723Z,101334.75
2023-07-21T07:18:44.183Z,101337.02
2023-07-21T07:21:12.460Z,101339.67
2023-07-21T07:23:40.731Z,101335.44
2023-07-21T07:26:09.146Z,101340.76
2023-07-21T07:28:38.111Z,101346.40
2023-07-21T07:31:08.049Z,101348.76
2023-07-21T07:33:36.519Z,101351.36
2023-07-21T07:36:05.466Z,101352.14
2023-07-21T07:38:33.879Z,101354.38
2023-07-21T07:41:05.049Z,101349.85
2023-07-21T07:43:34.003Z,101355.95
2023-07-21T07:46:03.162Z,101351.56
2023-07-21T07:48:31.586Z,101357.46
2023-07-21T07:51:03.959Z,101364.00
2023-07-21T07:53:33.583Z,101366.97
2023-07-21T07:56:02.668Z,101367.17
2023-07-21T07:58:31.650Z,101368.63
2023-07-21T08:01:03.438Z,101370.85
2023-07-21T08:03:33.916Z,101380.13
2023-07-21T08:06:02.537Z,101380.85
2023-07-21T08:08:30.906Z,101380.34
2023-07-21T08:10:59.087Z,101374.93
2023-07-21T08:13:27.353Z,101376.20
2023-07-21T08:15:55.684Z,101385.39
2023-07-21T08:18:24.406Z,101385.21
2023-07-21T08:20:53.303Z,101389.66
2023-07-21T08:23:29.543Z,101392.41
2023-07-21T08:25:58.970Z,101392.02
2023-07-21T08:28:27.034Z,101393.71
2023-07-21T08:30:59.452Z,101399.70
2023-07-21T08:33:28.565Z,101399.63
2023-07-21T08:35:56.993Z,101399.08
2023-07-21T08:38:26.167Z,101401.38
2023-07-21T08:41:18.223Z,101398.77
2023-07-21T08:43:48.676Z,101393.77
2023-07-21T08:46:17.156Z,101398.67
2023-07-21T08:48:46.566Z,101405.30
2023-07-21T08:51:15.147Z,101400.02
2023-07-21T08:53:43.394Z,101399.50
2023-07-21T08:56:13.307Z,101398.58
2023-07-21T08:58:41.592Z,101395.07
2023-07-21T09:01:10.465Z,101395.02
2023-07-21T09:03:46.201Z,101402.19
2023-07-21T09:06:15.845Z,101406.40
2023-07-21T09:08:50.046Z,101403.08
2023-07-21T09:11:18.433Z,101406.48
2023-07-21T09:13:59.211Z,101407.92
2023-07-21T09:16:27.779Z,101404.52
2023-07-21T09:18:58.469Z,101405.05
2023-07-21T09:21:26.796Z,101402.10
2023-07-21T09:24:02.060Z,101407.05
2023-07-21T09:26:30.367Z,101408.85
2023-07-21T09:29:00.469Z,101403.98
2023-07-21T09:31:31.903Z,101406.76
2023-07-21T09:34:10.810Z,101410.31
2023-07-21T09:36:48.733Z,101408.04
2023-07-21T09:39:19.349Z,101406.82
2023-07-21T09:41:52.118Z,101409.89
2023-07-21T09:44:21.629Z,101412.02
2023-07-21T09:46:52.736Z,101416.64
2023-07-21T09:49:21.033Z,101414.67
2023-07-21T09:51:51.263Z,101417.73
2023-07-21T09:54:23.526Z,101421.09
2023-07-21T09:56:54.869Z,101422.77
2023-07-21T09:59:23.226Z,101419.48
2023-07-21T10:01:53.243Z,101421.91
2023-07-21T10:04:22.368Z,101422.77
2023-07-21T10:06:51.485Z,101425.17
2023-07-21T10:09:19.849Z,101425.28
2023-07-21T10:11:48.229Z,101427.46
2023-07-21T10:14:35.239Z,101427.48
2023-07-21T10:17:03.630Z,101421.25
2023-07-21T10:19:40.394Z,101419.32
2023-07-21T10:22:15.903Z,101417.91
2023-07-21T10:24:47.277Z,101418.18
2023-07-21T10:27:23.040Z,101423.09
2023-07-21T10:29:57.524Z,101421.18
2023-07-21T10:32:26.493Z,101419.52
2023-07-21T10:34:55.138Z,101420.19
2023-07-21T10:37:23.416Z,101421.73
2023-07-21T10:39:56.000Z,101419.95
2023-07-21T10:42:24.312Z,101421.15
2023-07-21T10:44:52.650Z,101416.80
2023-07-21T10:47:22.992Z,101416.70
2023-07-21T10:49:51.554Z,101417.05
2023-07-21T10:52:20.666Z,101421.11
2023-07-21T10:54:48.835Z,101422.74
2023-07-21T10:57:17.200Z,101424.16
2023-07-21T10:59:45.393Z,101425.02
2023-07-21T11:02:13.917Z,101417.09
2023-07-21T11:04:42.685Z,101415.40
2023-07-21T11:07:11.134Z,101415.08
2023-07-21T11:09:45.524Z,101410.63
2023-07-21T11:12:13.927Z,101406.18
2023-07-21T11:14:42.006Z,101402.75
2023-07-21T11:17:10.301Z,101400.42
2023-07-21T11:19:40.904Z,101396.86
2023-07-21T11:22:11.043Z,101396.15
2023-07-21T11:24:41.016Z,101395.59
2023-07-21T11:27:12.493Z,101391.73
2023-07-21T11:29:44.504Z,101387.38
2023-07-21T11:32:24.113Z,101390.64
2023-07-21T11:34:58.313Z,101388.61
2023-07-21T11:37:36.114Z,101391.58
2023-07-21T11:40:20.256Z,101396.48
2023-07-21T11:42:54.185Z,101397.30
2023-07-21T11:45:34.389Z,101400.66
2023-07-21T11:48:14.341Z,101399.02
2023-07-21T11:50:51.125Z,101395.50
2023-07-21T11:53:20.760Z,101397.48
2023-07-21T11:55:49.754Z,101396.39
2023-07-21T11:58:18.024Z,101392.52
2023-07-21T12:00:46.522Z,101392.14
2023-07-21T12:03:14.675Z,101391.95
2023-07-21T12:05:45.219Z,101390.55
2023-07-21T12:08:14.099Z,101388.71
2023-07-21T12:10:42.392Z,101389.39
2023-07-21T12:13:10.486Z,101392.33
2023-07-21T12:15:39.128Z,101397.52
2023-07-21T12:18:07.702Z,101403.36
2023-07-21T12:20:36.322Z,101401.59
2023-07-21T12:23:04.392Z,101408.06
2023-07-21T12:25:35.414Z,101406.05
2023-07-21T12:28:05.654Z,101408.19
2023-07-21T12:30:34.310Z,101412.15
2023-07-21T12:33:03.235Z,101410.73
2023-07-21T12:35:32.420Z,101408.37
2023-07-21T12:38:02.370Z,101409.95
2023-07-21T12:40:30.417Z,101413.24
2023-07-21T12:42:58.678Z,101415.84
2023-07-21T12:45:26.947Z,101421.75
2023-07-21T12:47:55.360Z,101424.20
2023-07-21T12:50:24.354Z,101422.62
2023-07-21T12:52:52.700Z,101425.30
2023-07-21T12:55:20.874Z,101429.77
2023-07-21T12:57:49.269Z,101434.55
2023-07-21T13:00:17.433Z,101429.22
2023-07-21T13:02:46.398Z,101431.88
2023-07-21T13:05:15.138Z,101438.13
2023-07-21T13:07:44.707Z,101437.64
2023-07-21T13:10:13.296Z,101438.59
2023-07-21T13:12:41.573Z,101438.31
2023-07-21T13:15:10.304Z,101438.27
2023-07-21T13:17:38.591Z,101433.67
2023-07-21T13:20:10.914Z,101431.00
2023-07-21T13:22:38.971Z,101430.83
2023-07-21T13:25:08.482Z,101432.73
2023-07-21T13:27:37.908Z,101438.61
2023-07-21T13:30:07.088Z,101435.14
2023-07-21T13:32:35.667Z,101430.30
2023-07-21T13:35:04.467Z,101429.44
2023-07-21T13:37:32.726Z,101426.30
2023-07-21T13:40:01.112Z,101423.83
2023-07-21T13:42:29.688Z,101429.55
2023-07-21T13:44:57.854Z,101427.66
2023-07-21T13:47:27.049Z,101430.00
2023-07-21T13:49:56.252Z,101430.77
2023-07-21T13:52:25.058Z,101435.57
2023-07-21T13:54:53.426Z,101432.23
2023-07-21T13:57:21.709Z,101433.31
2023-07-21T13:59:49.971Z,101432.98
2023-07-21T14:02:18.310Z,101437.17
2023-07-21T14:04:46.740Z,101436.61
2023-07-21T14:07:15.030Z,101433.94
2023-07-21T14:09:43.716Z,101440.75
2023-07-21T14:12:12.068Z,101438.86
2023-07-21T14:14:40.446Z,101434.95
2023-07-21T14:17:09.289Z,101434.15
2023-07-21T14:19:37.717Z,101430.52
2023-07-21T14:22:06.308Z,101432.20
2023-07-21T14:24:35.276Z,101434.06
2023-07-21T14:27:03.910Z,101435.18
2023-07-21T14:29:33.393Z,101435.50
2023-07-21T14:32:01.661Z,101433.87
2023-07-21T14:34:30.034Z,101435.16
2023-07-21T14:36:58.830Z,101427.87
2023-07-21T14:39:27.408Z,101428.86
2023-07-21T14:41:55.781Z,101429.45
2023-07-21T14:44:24.262Z,101435.09
2023-07-21T14:46:52.567Z,101431.70
2023-07-21T14:49:22.415Z,101427.60
2023-07-21T14:51:50.742Z,101429.73
2023-07-21T14:54:21.000Z,101436.05
2023-07-21T14:56:49.443Z,101432.61
2023-07-21T14:59:18.246Z,101432.97
2023-07-21T15:01:46.513Z,101433.75
2023-07-21T15:04:15.113Z,101432.93
2023-07-21T15:06:43.389Z,101430.42
2023-07-21T15:09:11.757Z,101429.57
2023-07-21T15:11:40.853Z,101433.98
2023-07-21T15:14:09.133Z,101437.23
2023-07-21T15:16:37.852Z,101429.36
2023-07-21T15:19:06.087Z,101429.92
2023-07-21T15:21:34.569Z,101430.27
2023-07-21T15:24:02.856Z,101431.00
2023-07-21T15:26:31.530Z,101432.17
2023-07-21T15:28:59.824Z,101431.52
2023-07-21T15:31:28.426Z,101431.83
2023-07-21T15:33:56.870Z,101430.70
2023-07-21T15:36:25.512Z,101425.46
2023-07-21T15:38:54.355Z,101425.84
2023-07-21T15:41:22.625Z,101425.48
2023-07-21T15:43:50.894Z,101426.65
2023-07-21T15:46:20.796Z,101429.02
2023-07-21T15:48:50.419Z,101426.36
2023-07-21T15:51:18.718Z,101430.10
2023-07-21T15:53:47.093Z,101425.66
2023-07-21T15:56:15.558Z,101423.22
2023-07-21T15:58:43.830Z,101428.36
2023-07-21T16:01:12.111Z,101430.32
2023-07-21T16:03:40.485Z,101430.52
2023-07-21T16:06:08.964Z,101434.33
2023-07-21T16:08:37.951Z,101435.83
2023-07-21T16:11:06.639Z,101435.36
2023-07-21T16:13:36.695Z,101438.87
2023-07-21T16:16:05.598Z,101441.63
2023-07-21T16:18:33.936Z,101443.30
2023-07-21T16:21:02.207Z,101445.96
2023-07-21T16:23:30.488Z,101445.23
2023-07-21T16:25:59.884Z,101446.15
2023-07-21T16:41:11.220Z,101458.94
2023-07-21T16:43:39.709Z,101460.27
2023-07-21T16:46:10.882Z,101461.88
2023-07-21T16:48:39.329Z,101462.80
2023-07-21T16:51:13.131Z,101465.52
2023-07-21T16:53:41.410Z,101469.61
2023-07-21T16:56:10.509Z,101473.08
2023-07-21T16:58:40.845Z,101480.10
2023-07-21T17:01:12.443Z,101478.22
2023-07-21T17:03:41.148Z,101475.63
2023-07-21T17:06:09.753Z,101475.64
2023-07-21T17:08:37.885Z,101476.16
2023-07-21T17:11:06.718Z,101475.85
2023-07-21T17:13:35.506Z,101474.70
2023-07-21T17:16:03.904Z,101473.95
2023-07-21T17:18:32.163Z,101471.39
2023-07-21T17:21:00.370Z,101464.48
2023-07-21T17:23:28.625Z,101462.34
2023-07-21T17:25:56.889Z,101465.23
2023-07-21T17:28:25.277Z,101470.26
2023-07-21T17:30:53.543Z,101469.97
2023-07-21T17:33:22.545Z,101470.80
2023-07-21T17:35:50.601Z,101474.23
2023-07-21T17:38:18.878Z,101478.90
2023-07-21T17:40:56.717Z,101480.30
2023-07-21T17:43:25.058Z,101475.52
2023-07-21T17:45:55.537Z,101475.02
2023-07-21T17:48:24.819Z,101476.56
2023-07-21T17:50:54.560Z,101474.90
2023-07-21T17:53:24.049Z,101478.44
2023-07-21T17:55:52.211Z,101472.91
2023-07-21T17:58:20.555Z,101474.52
2023-07-21T18:00:48.874Z,101474.51
2023-07-21T18:03:17.310Z,101479.93
2023-07-21T18:05:45.785Z,101478.92
2023-07-21T18:08:13.961Z,101485.36
2023-07-21T18:10:42.352Z,101489.09
2023-07-21T18:13:11.548Z,101502.36
2023-07-21T18:15:39.933Z,101509.88
2023-07-21T18:18:08.470Z,101506.87
2023-07-21T18:20:37.401Z,101504.48
2023-07-21T18:23:05.977Z,101506.13
2023-07-21T18:25:34.256Z,101509.66
2023-07-21T18:28:02.333Z,101515.73
2023-07-21T18:30:30.711Z,101516.06
2023-07-21T18:32:58.932Z,101515.58
2023-07-21T18:35:30.130Z,101519.36
2023-07-21T18:37:58.608Z,101525.34
2023-07-21T18:40:27.079Z,101529.59
2023-07-21T18:42:55.556Z,101521.46
2023-07-21T18:45:23.844Z,101526.04
2023-07-21T18:47:52.452Z,101525.61
2023-07-21T18:50:21.726Z,101526.62
2023-07-21T18:52:54.428Z,101529.85
2023-07-21T18:55:24.387Z,101530.91
2023-07-21T18:57:53.829Z,101525.51
2023-07-21T19:00:22.095Z,101524.48
2023-07-21T19:02:50.274Z,101523.87
2023-07-21T19:05:19.038Z,101525.08
2023-07-21T19:07:47.384Z,101525.73
2023-07-21T19:10:15.618Z,101526.98
2023-07-21T19:12:43.992Z,101532.29
2023-07-21T19:15:12.938Z,101531.56
2023-07-21T19:17:42.654Z,101531.04
2023-07-21T19:20:11.567Z,101529.58
2023-07-21T19:22:40.276Z,101528.52
2023-07-21T19:25:11.932Z,101529.02
2023-07-21T19:27:40.653Z,101527.69
2023-07-21T19:30:09.845Z,101528.10
2023-07-21T19:32:42.706Z,101529.33
2023-07-21T19:35:11.842Z,101527.88
2023-07-21T19:37:41.893Z,101530.52
2023-07-21T19:40:11.437Z,101530.38
2023-07-21T19:42:39.488Z,101526.56
2023-07-21T19:45:11.972Z,101525.58
2023-07-21T19:47:40.591Z,101523.98
2023-07-21T19:50:09.319Z,101519.52
2023-07-21T19:52:37.512Z,101517.64
2023-07-21T19:55:06.395Z,101518.45
2023-07-21T19:57:35.088Z,101516.05
2023-07-21T20:00:04.675Z,101512.98
2023-07-21T20:02:36.788Z,101512.33
2023-07-21T20:05:05.752Z,101511.03
2023-07-21T20:07:35.164Z,101513.79
2023-07-21T20:10:03.535Z,101514.20
2023-07-21T20:12:31.716Z,101511.98
2023-07-21T20:14:59.990Z,101510.05
2023-07-21T20:17:28.426Z,101512.95
2023-07-21T20:19:56.738Z,101518.08
2023-07-21T20:22:25.142Z,101517.98
2023-07-21T20:24:53.457Z,101511.12
2023-07-21T20:27:21.789Z,101508.85
2023-07-21T20:29:50.057Z,101512.35
2023-07-21T20:32:18.325Z,101516.69
2023-07-21T20:34:46.414Z,101517.02
2023-07-21T20:37:14.678Z,101521.55
2023-07-21T20:39:42.849Z,101527.48
2023-07-21T20:42:12.257Z,101530.58
2023-07-21T20:44:41.040Z,101536.27
2023-07-21T20:47:09.312Z,101541.40
2023-07-21T20:49:37.593Z,101544.75
2023-07-21T20:52:07.399Z,101550.28
2023-07-21T20:54:35.576Z,101558.54
2023-07-21T20:57:04.361Z,101559.86
2023-07-21T20:59:37.763Z,101552.97
2023-07-21T21:02:09.621Z,101554.58
2023-07-21T21:04:38.096Z,101564.10
2023-07-21T21:07:06.996Z,101567.36
2023-07-21T21:09:35.357Z,101562.64
2023-07-21T21:12:04.114Z,101557.65
2023-07-21T21:14:33.791Z,101555.86
2023-07-21T21:17:02.098Z,101554.10
2023-07-21T21:19:30.510Z,101551.18
2023-07-21T21:21:58.689Z,101545.30
2023-07-21T21:24:28.068Z,101540.24
2023-07-21T21:26:56.579Z,101541.38
2023-07-21T21:29:24.852Z,101540.58
2023-07-21T21:31:53.251Z,101537.05
2023-07-21T21:34:21.341Z,101533.77
2023-07-21T21:36:49.604Z,101533.52
2023-07-21T21:39:17.956Z,101536.66
2023-07-21T21:41:46.230Z,101540.31
2023-07-21T21:44:14.512Z,101532.87
2023-07-21T21:46:42.936Z,101531.11
2023-07-21T21:49:11.125Z,101525.10
2023-07-21T21:51:39.550Z,101523.41
2023-07-21T21:54:07.923Z,101522.37
2023-07-21T21:56:37.438Z,101520.88
2023-07-21T21:59:05.543Z,101517.16
2023-07-21T22:01:34.317Z,101514.75
2023-07-21T22:04:02.645Z,101515.00
2023-07-21T22:06:30.840Z,101516.05
2023-07-21T22:08:59.544Z,101514.27
2023-07-21T22:11:28.628Z,101512.73
2023-07-21T22:13:57.407Z,101510.46
2023-07-21T22:16:26.221Z,101509.85
2023-07-21T22:18:54.628Z,101510.45
2023-07-21T22:21:23.164Z,101514.89
2023-07-21T22:23:51.844Z,101518.20
2023-07-21T22:26:20.434Z,101517.77
2023-07-21T22:28:48.607Z,101523.84
2023-07-21T22:31:18.961Z,101526.71
2023-07-21T22:33:47.513Z,101523.73
2023-07-21T22:36:17.845Z,101518.52
2023-07-21T22:38:46.138Z,101505.77
2023-07-21T22:41:14.409Z,101503.29
2023-07-21T22:43:42.768Z,101504.89
2023-07-21T22:46:10.869Z,101502.43
2023-07-21T22:48:39.101Z,101501.75
2023-07-21T22:51:09.767Z,101498.52
2023-07-21T22:53:39.996Z,101493.30
2023-07-21T22:56:09.098Z,101493.23
2023-07-21T22:58:37.746Z,101493.03
2023-07-21T23:01:10.190Z,101490.82
2023-07-21T23:03:39.622Z,101489.69
2023-07-21T23:06:07.900Z,101486.98
2023-07-21T23:08:36.174Z,101483.90
2023-07-21T23:11:04.360Z,101481.73
2023-07-21T23:13:32.625Z,101480.14
2023-07-21T23:16:01.040Z,101475.53
2023-07-21T23:18:29.492Z,101475.90
2023-07-21T23:20:57.762Z,101482.48
2023-07-21T23:23:26.033Z,101485.58
2023-07-21T23:25:58.916Z,101484.73
2023-07-21T23:28:27.200Z,101477.83
2023-07-21T23:31:03.697Z,101478.17
2023-07-21T23:33:32.632Z,101482.15
2023-07-21T23:36:01.792Z,101482.04
2023-07-21T23:38:30.667Z,101482.27
2023-07-21T23:40:58.986Z,101483.60
2023-07-21T23:43:27.189Z,101487.20
2023-07-21T23:45:59.494Z,101493.77
2023-07-21T23:48:28.376Z,101493.23
2023-07-21T23:50:56.634Z,101503.16
2023-07-21T23:53:24.907Z,101509.41
2023-07-21T23:55:53.068Z,101508.01
2023-07-21T23:58:21.195Z,101502.51
